Time;durP1;ratioP1;P1;durP2;ratioP2;P2;SDS_P1;SDS_P2;PMS_P1;PMS_P2;Temp;Humidity;BMP_temperature;BMP_pressure;BME280_temperature;BME280_humidity;BME280_pressure;Samples;Min_cycle;Max_cycle;Signal;HPM_P1;HPM_P2
2023/05/23 00:00:41;;;;;;;8.60;6.03;;;16.40;99.90;;;;;;5073925;28;20028;-82
2023/05/23 00:03:08;;;;;;;9.02;5.68;;;16.40;99.90;;;;;;5075475;28;20581;-83
2023/05/23 00:05:33;;;;;;;8.70;5.93;;;16.50;99.90;;;;;;5075530;28;20061;-82
2023/05/23 00:08:00;;;;;;;10.65;7.07;;;16.40;99.90;;;;;;5076335;28;20031;-82
2023/05/23 00:10:26;;;;;;;9.25;5.88;;;16.40;99.90;;;;;;5075111;28;20029;-82
2023/05/23 00:12:52;;;;;;;7.05;5.43;;;16.40;99.90;;;;;;5064695;28;20039;-81
2023/05/23 00:15:18;;;;;;;8.88;5.13;;;16.40;99.90;;;;;;5058282;28;20020;-82
2023/05/23 00:17:45;;;;;;;7.22;4.95;;;16.40;99.90;;;;;;5058300;28;20036;-82
2023/05/23 00:20:12;;;;;;;7.97;5.70;;;16.40;99.90;;;;;;5073288;28;20012;-82
2023/05/23 00:22:41;;;;;;;9.52;6.03;;;16.40;99.90;;;;;;5075507;28;20410;-81
2023/05/23 00:25:08;;;;;;;10.98;6.60;;;16.30;99.90;;;;;;5074702;28;20082;-81
2023/05/23 00:27:34;;;;;;;11.57;7.15;;;16.30;99.90;;;;;;5075508;28;20060;-81
2023/05/23 00:30:00;;;;;;;8.57;5.88;;;16.20;99.90;;;;;;5074389;28;20035;-82
2023/05/23 00:32:25;;;;;;;10.50;7.13;;;16.20;99.90;;;;;;5075518;28;20028;-82
2023/05/23 00:34:52;;;;;;;12.02;6.93;;;16.20;99.90;;;;;;5073551;28;20020;-82
2023/05/23 00:37:19;;;;;;;12.15;7.80;;;16.20;99.90;;;;;;5073913;28;20577;-81
2023/05/23 00:39:44;;;;;;;12.05;7.10;;;16.10;99.90;;;;;;5064286;28;20028;-81
2023/05/23 00:42:10;;;;;;;11.57;7.15;;;16.00;99.90;;;;;;5057708;28;20035;-80
2023/05/23 00:44:35;;;;;;;9.30;5.80;;;16.00;99.90;;;;;;5074184;28;20273;-81
2023/05/23 00:47:01;;;;;;;11.65;7.85;;;15.90;99.90;;;;;;5058593;28;20556;-80
2023/05/23 00:49:28;;;;;;;12.75;7.75;;;16.00;99.90;;;;;;5064105;28;20456;-83
2023/05/23 00:51:53;;;;;;;10.27;6.47;;;16.00;99.90;;;;;;5060222;28;20028;-83
2023/05/23 00:54:29;;;;;;;11.88;7.78;;;16.00;99.90;;;;;;5075067;28;20028;-83
2023/05/23 00:56:56;;;;;;;13.88;7.82;;;15.90;99.90;;;;;;5059063;28;20052;-82
2023/05/23 00:59:26;;;;;;;13.07;8.20;;;15.80;99.90;;;;;;5062609;28;20674;-83
2023/05/23 01:01:54;;;;;;;9.10;6.57;;;15.80;99.90;;;;;;5073668;28;20039;-83
2023/05/23 01:04:25;;;;;;;10.88;7.50;;;15.70;99.90;;;;;;5072989;28;20159;-82
2023/05/23 01:06:54;;;;;;;11.50;6.43;;;15.70;99.90;;;;;;5063471;28;20521;-82
2023/05/23 01:09:20;;;;;;;11.82;7.32;;;15.60;99.90;;;;;;5072810;28;20114;-83
2023/05/23 01:12:12;;;;;;;9.85;6.35;;;15.60;99.90;;;;;;5075036;28;20032;-82
2023/05/23 01:14:47;;;;;;;10.18;6.63;;;15.60;99.90;;;;;;5072902;28;20036;-82
2023/05/23 01:17:19;;;;;;;10.13;6.75;;;15.60;99.90;;;;;;5075070;28;20020;-83
2023/05/23 01:19:57;;;;;;;9.43;5.57;;;15.60;99.90;;;;;;5058437;28;20074;-82
2023/05/23 01:22:44;;;;;;;9.15;5.88;;;15.60;99.90;;;;;;5065825;28;20056;-82
2023/05/23 01:25:24;;;;;;;10.75;6.10;;;15.60;99.90;;;;;;5064134;28;20039;-82
2023/05/23 01:28:06;;;;;;;11.48;5.97;;;15.50;99.90;;;;;;5058902;28;21915;-82
2023/05/23 01:30:36;;;;;;;10.88;5.90;;;15.40;99.90;;;;;;5062766;28;20039;-81
2023/05/23 01:33:03;;;;;;;9.88;6.07;;;15.40;99.90;;;;;;5058135;28;20058;-82
2023/05/23 01:35:30;;;;;;;12.85;6.93;;;15.40;99.90;;;;;;5073425;28;20023;-83
2023/05/23 01:37:56;;;;;;;12.43;6.35;;;15.40;99.90;;;;;;5062747;28;20074;-82
2023/05/23 01:40:23;;;;;;;10.43;6.57;;;15.40;99.90;;;;;;5073107;28;20036;-83
2023/05/23 01:42:49;;;;;;;12.95;7.70;;;15.40;99.90;;;;;;5062978;28;20036;-81
2023/05/23 01:45:16;;;;;;;8.93;5.43;;;15.40;99.90;;;;;;5057349;28;20077;-83
2023/05/23 01:47:42;;;;;;;7.75;5.20;;;15.30;99.90;;;;;;5062627;28;20473;-82
2023/05/23 01:50:09;;;;;;;8.00;5.70;;;15.40;99.90;;;;;;5057914;28;20112;-81
2023/05/23 01:52:35;;;;;;;8.60;5.47;;;15.40;99.90;;;;;;5056648;28;20036;-82
2023/05/23 01:55:08;;;;;;;8.13;5.05;;;15.40;99.90;;;;;;5059459;28;20028;-82
2023/05/23 01:57:35;;;;;;;7.55;4.68;;;15.40;99.90;;;;;;5062317;28;20035;-82
2023/05/23 02:00:00;;;;;;;8.73;5.90;;;15.40;99.90;;;;;;5072715;28;20516;-82
2023/05/23 02:02:26;;;;;;;8.45;5.13;;;15.40;99.90;;;;;;5056703;28;20040;-82
2023/05/23 02:04:52;;;;;;;8.27;5.22;;;15.40;99.90;;;;;;5072991;28;20110;-81
2023/05/23 02:07:21;;;;;;;8.05;5.90;;;15.30;99.90;;;;;;5062071;28;20358;-81
2023/05/23 02:09:48;;;;;;;13.45;7.45;;;15.30;99.90;;;;;;5072096;28;20024;-80
2023/05/23 02:12:13;;;;;;;11.93;7.28;;;15.30;99.90;;;;;;5059027;28;20035;-81
2023/05/23 02:14:41;;;;;;;8.90;5.63;;;15.20;99.90;;;;;;5072782;28;20027;-83
2023/05/23 02:17:08;;;;;;;9.48;6.03;;;15.10;99.90;;;;;;5072415;28;20032;-82
2023/05/23 02:19:34;;;;;;;14.50;6.20;;;15.20;99.90;;;;;;5072215;28;20035;-82
2023/05/23 02:22:00;;;;;;;8.55;5.82;;;15.10;99.90;;;;;;5061881;28;20052;-82
2023/05/23 02:24:25;;;;;;;10.45;6.68;;;15.10;99.90;;;;;;5074507;28;20115;-82
2023/05/23 02:26:51;;;;;;;10.02;6.45;;;15.20;99.90;;;;;;5074399;28;20427;-82
2023/05/23 02:29:17;;;;;;;9.77;6.30;;;15.20;99.90;;;;;;5061442;28;20157;-82
2023/05/23 02:31:43;;;;;;;11.40;7.15;;;15.10;99.90;;;;;;5057617;28;20020;-82
2023/05/23 02:34:08;;;;;;;7.97;5.75;;;15.20;99.90;;;;;;5071636;28;20024;-83
2023/05/23 02:36:35;;;;;;;10.82;6.57;;;15.10;99.90;;;;;;5061342;28;20920;-82
2023/05/23 02:39:01;;;;;;;9.90;5.78;;;15.10;99.90;;;;;;5072598;28;20065;-82
2023/05/23 02:41:27;;;;;;;11.40;6.70;;;15.10;99.90;;;;;;5072167;28;21715;-82
2023/05/23 02:43:53;;;;;;;13.23;7.68;;;15.10;99.90;;;;;;5058966;28;20804;-82
2023/05/23 02:46:22;;;;;;;11.00;7.10;;;15.10;99.90;;;;;;5071098;28;20036;-82
2023/05/23 02:48:47;;;;;;;11.82;7.50;;;15.10;99.90;;;;;;5056308;28;20036;-81
2023/05/23 02:51:13;;;;;;;10.25;6.38;;;15.10;99.90;;;;;;5055837;28;20534;-81
2023/05/23 02:53:39;;;;;;;14.13;8.07;;;15.10;99.90;;;;;;5072742;28;20032;-81
2023/05/23 02:56:06;;;;;;;12.80;8.48;;;15.00;99.90;;;;;;5072042;28;20025;-82
2023/05/23 02:58:34;;;;;;;13.15;7.55;;;15.00;99.90;;;;;;5058218;28;20020;-82
2023/05/23 03:01:03;;;;;;;14.63;7.95;;;15.00;99.90;;;;;;5062604;28;20090;-81
2023/05/23 03:03:30;;;;;;;15.10;7.97;;;15.10;99.90;;;;;;5062871;28;20040;-82
2023/05/23 03:06:05;;;;;;;12.55;7.03;;;15.10;99.90;;;;;;5072744;28;20040;-82
2023/05/23 03:08:30;;;;;;;12.25;7.32;;;15.10;99.90;;;;;;5072666;28;20067;-82
2023/05/23 03:10:56;;;;;;;8.85;6.88;;;15.10;99.90;;;;;;5062144;28;20111;-82
2023/05/23 03:13:21;;;;;;;11.82;7.28;;;15.00;99.90;;;;;;5063113;28;20016;-82
2023/05/23 03:15:47;;;;;;;14.13;7.40;;;15.00;99.90;;;;;;5056177;28;20103;-82
2023/05/23 03:18:12;;;;;;;12.65;7.03;;;15.00;99.90;;;;;;5055582;28;20028;-82
2023/05/23 03:20:38;;;;;;;10.60;6.03;;;14.90;99.90;;;;;;5071965;28;20035;-82
2023/05/23 03:23:04;;;;;;;10.65;6.30;;;14.90;99.90;;;;;;5071865;28;20057;-81
2023/05/23 03:25:29;;;;;;;12.68;6.07;;;14.90;99.90;;;;;;5055170;28;20030;-82
2023/05/23 03:27:55;;;;;;;10.93;6.22;;;14.90;99.90;;;;;;5058219;28;20032;-82
2023/05/23 03:30:21;;;;;;;8.13;5.53;;;14.90;99.90;;;;;;5063923;28;20066;-83
2023/05/23 03:32:46;;;;;;;11.35;5.75;;;14.90;99.90;;;;;;5076002;28;20033;-83
2023/05/23 03:35:12;;;;;;;9.57;5.25;;;14.90;99.90;;;;;;5060173;28;20039;-82
2023/05/23 03:37:38;;;;;;;9.10;4.85;;;14.90;99.90;;;;;;5058995;28;20058;-83
2023/05/23 03:40:06;;;;;;;7.05;5.05;;;14.90;99.90;;;;;;5076945;28;20024;-82
2023/05/23 03:42:31;;;;;;;7.32;4.65;;;14.90;99.90;;;;;;5076344;28;20085;-83
2023/05/23 03:44:57;;;;;;;8.32;4.38;;;14.90;99.90;;;;;;5075799;28;20047;-82
2023/05/23 03:47:25;;;;;;;10.20;4.90;;;15.00;99.90;;;;;;5074945;28;20075;-82
2023/05/23 03:49:51;;;;;;;6.97;4.28;;;15.00;99.90;;;;;;5064936;28;20069;-83
2023/05/23 03:52:16;;;;;;;6.25;4.18;;;15.00;99.90;;;;;;5075777;28;20040;-83
2023/05/23 03:54:42;;;;;;;6.88;4.47;;;15.00;99.90;;;;;;5076277;28;20036;-82
2023/05/23 03:57:07;;;;;;;7.20;4.13;;;15.00;99.90;;;;;;5065439;28;20038;-82
2023/05/23 03:59:34;;;;;;;7.45;4.25;;;15.10;99.90;;;;;;5062248;28;20043;-82
2023/05/23 04:01:59;;;;;;;7.35;4.47;;;15.10;99.90;;;;;;5075788;28;20170;-83
2023/05/23 04:04:26;;;;;;;7.25;4.20;;;15.10;99.90;;;;;;5056897;28;20024;-83
2023/05/23 04:06:52;;;;;;;8.43;4.57;;;15.10;99.90;;;;;;5064647;28;20074;-84
2023/05/23 04:09:17;;;;;;;9.75;4.78;;;15.10;99.90;;;;;;5063278;28;20020;-83
2023/05/23 04:11:43;;;;;;;6.95;5.13;;;15.20;99.90;;;;;;5062789;28;20029;-82
2023/05/23 04:14:09;;;;;;;12.73;5.80;;;15.20;99.90;;;;;;5074654;28;20111;-83
2023/05/23 04:16:36;;;;;;;7.88;4.95;;;15.20;99.90;;;;;;5062126;28;20031;-84
2023/05/23 04:19:03;;;;;;;10.20;5.65;;;15.20;99.90;;;;;;5055416;28;21897;-83
2023/05/23 04:21:29;;;;;;;8.25;4.68;;;15.20;99.90;;;;;;5062540;28;20032;-83
2023/05/23 04:23:55;;;;;;;10.13;5.88;;;15.20;99.90;;;;;;5062769;28;20028;-81
2023/05/23 04:26:20;;;;;;;8.65;5.28;;;15.20;99.90;;;;;;5074708;28;20119;-82
2023/05/23 04:28:47;;;;;;;10.63;5.80;;;15.20;99.90;;;;;;5075182;28;20600;-82
2023/05/23 04:31:13;;;;;;;10.52;6.25;;;15.20;99.90;;;;;;5074156;28;20024;-83
2023/05/23 04:33:39;;;;;;;12.38;7.13;;;15.10;99.90;;;;;;5058469;28;20039;-82
2023/05/23 04:36:07;;;;;;;9.45;6.00;;;15.10;99.90;;;;;;5075081;28;20082;-83
2023/05/23 04:38:33;;;;;;;12.57;6.35;;;15.10;99.90;;;;;;5076103;28;20024;-82
2023/05/23 04:40:59;;;;;;;15.85;6.45;;;15.10;99.90;;;;;;5074611;28;20394;-83
2023/05/23 04:43:26;;;;;;;11.40;7.25;;;15.10;99.90;;;;;;5075068;28;20079;-85
2023/05/23 04:45:54;;;;;;;13.55;6.30;;;15.00;99.90;;;;;;5064943;28;20020;-84
2023/05/23 04:48:20;;;;;;;12.82;7.10;;;15.10;99.90;;;;;;5058562;28;20501;-84
2023/05/23 04:50:49;;;;;;;13.57;6.13;;;15.10;99.90;;;;;;5064509;28;20020;-84
2023/05/23 04:53:15;;;;;;;11.93;7.13;;;15.10;99.90;;;;;;5074949;28;20073;-84
2023/05/23 04:55:40;;;;;;;11.43;6.18;;;15.10;99.90;;;;;;5059955;28;20428;-83
2023/05/23 04:58:06;;;;;;;13.07;6.50;;;15.10;99.90;;;;;;5059787;28;20044;-84
2023/05/23 05:00:32;;;;;;;10.10;5.97;;;15.10;99.90;;;;;;5059805;28;20028;-82
2023/05/23 05:02:57;;;;;;;11.63;6.05;;;15.10;99.90;;;;;;5056342;28;20048;-83
2023/05/23 05:05:23;;;;;;;11.10;5.75;;;15.10;99.90;;;;;;5071016;28;20028;-83
2023/05/23 05:07:49;;;;;;;11.25;6.55;;;15.10;99.90;;;;;;5055972;28;20020;-83
2023/05/23 05:10:16;;;;;;;9.68;5.80;;;15.10;99.90;;;;;;5070599;28;20031;-83
2023/05/23 05:12:48;;;;;;;14.70;6.75;;;15.10;99.90;;;;;;5062153;28;20048;-83
2023/05/23 05:15:14;;;;;;;12.07;5.75;;;15.10;99.90;;;;;;5073918;28;20024;-83
2023/05/23 05:17:40;;;;;;;12.02;5.93;;;15.00;99.90;;;;;;5061041;28;20023;-83
2023/05/23 05:20:07;;;;;;;13.82;6.32;;;15.00;99.90;;;;;;5069367;28;20136;-83
2023/05/23 05:22:35;;;;;;;13.35;6.35;;;15.00;99.90;;;;;;5054694;28;20056;-83
2023/05/23 05:25:02;;;;;;;11.23;5.32;;;14.90;99.90;;;;;;5059950;28;20043;-83
2023/05/23 05:27:27;;;;;;;11.52;5.75;;;14.90;99.90;;;;;;5060551;28;20725;-83
2023/05/23 05:29:57;;;;;;;10.85;5.13;;;14.80;99.90;;;;;;5073529;28;20029;-82
2023/05/23 05:32:23;;;;;;;10.70;4.55;;;14.80;99.90;;;;;;5069558;28;20444;-83
2023/05/23 05:34:49;;;;;;;9.48;5.00;;;14.80;99.90;;;;;;5056588;28;20029;-83
2023/05/23 05:37:15;;;;;;;13.25;5.45;;;14.80;99.90;;;;;;5060640;28;20082;-84
2023/05/23 05:39:41;;;;;;;16.55;5.50;;;14.80;99.90;;;;;;5071278;28;20024;-83
2023/05/23 05:42:06;;;;;;;13.98;5.40;;;14.60;99.90;;;;;;5064501;28;20067;-82
2023/05/23 05:44:32;;;;;;;9.88;4.28;;;14.60;99.90;;;;;;5055545;28;20050;-83
2023/05/23 05:46:57;;;;;;;10.32;5.07;;;14.60;99.90;;;;;;5056185;28;20111;-83
2023/05/23 05:49:23;;;;;;;11.65;4.65;;;14.60;99.90;;;;;;5051432;28;20024;-83
2023/05/23 05:51:48;;;;;;;8.73;4.20;;;14.50;99.90;;;;;;5060307;28;20037;-82
2023/05/23 05:54:14;;;;;;;10.35;4.30;;;14.50;99.90;;;;;;5053748;28;20036;-82
2023/05/23 05:56:41;;;;;;;8.75;4.05;;;14.50;99.90;;;;;;5061024;28;20026;-83
2023/05/23 05:59:06;;;;;;;13.35;5.10;;;14.50;99.90;;;;;;5069985;28;20564;-83
2023/05/23 06:01:33;;;;;;;10.00;4.32;;;14.50;99.90;;;;;;5060053;28;20309;-82
2023/05/23 06:03:59;;;;;;;10.00;4.45;;;14.40;99.90;;;;;;5072895;28;20078;-82
2023/05/23 06:06:25;;;;;;;11.73;4.70;;;14.40;99.90;;;;;;5071571;28;20044;-82
2023/05/23 06:08:50;;;;;;;11.20;4.35;;;14.30;99.90;;;;;;5061988;28;20132;-82
2023/05/23 06:11:16;;;;;;;10.52;4.10;;;14.30;99.90;;;;;;5073766;28;20028;-82
2023/05/23 06:13:42;;;;;;;10.52;4.32;;;14.30;99.90;;;;;;5063861;28;20051;-82
2023/05/23 06:16:07;;;;;;;9.55;4.60;;;14.30;99.90;;;;;;5073770;28;20512;-82
2023/05/23 06:18:33;;;;;;;10.48;4.47;;;14.20;99.90;;;;;;5072402;28;20027;-82
2023/05/23 06:20:59;;;;;;;11.88;4.90;;;14.10;99.90;;;;;;5065738;28;20036;-82
2023/05/23 06:23:25;;;;;;;13.88;5.22;;;14.00;99.90;;;;;;5062058;28;20040;-83
2023/05/23 06:25:50;;;;;;;10.77;4.20;;;14.00;99.90;;;;;;5073919;28;20031;-82
2023/05/23 06:28:16;;;;;;;6.95;4.00;;;14.00;99.90;;;;;;5073275;28;20024;-82
2023/05/23 06:30:41;;;;;;;9.13;3.90;;;14.00;99.90;;;;;;5071459;28;20784;-82
2023/05/23 06:33:07;;;;;;;8.57;4.00;;;14.00;99.90;;;;;;5072434;28;20489;-82
2023/05/23 06:35:33;;;;;;;7.72;3.85;;;14.00;99.90;;;;;;5072235;28;20624;-82
2023/05/23 06:37:58;;;;;;;6.95;3.35;;;14.00;99.90;;;;;;5072279;28;20032;-83
2023/05/23 06:40:24;;;;;;;9.48;3.80;;;14.10;99.90;;;;;;5073390;28;20167;-84
2023/05/23 06:42:49;;;;;;;7.22;3.47;;;14.10;99.90;;;;;;5062756;28;20469;-83
2023/05/23 06:45:16;;;;;;;10.10;3.95;;;14.10;99.90;;;;;;5061800;28;20053;-82
2023/05/23 06:47:44;;;;;;;8.57;3.85;;;14.10;99.90;;;;;;5056653;28;20071;-83
2023/05/23 06:50:10;;;;;;;9.23;3.63;;;14.10;99.90;;;;;;5056558;28;20358;-84
2023/05/23 06:52:35;;;;;;;10.32;4.22;;;14.20;99.90;;;;;;5062027;28;20123;-84
2023/05/23 06:55:01;;;;;;;11.43;4.38;;;14.20;99.90;;;;;;5072705;28;20036;-83
2023/05/23 06:57:26;;;;;;;8.77;4.05;;;14.20;99.90;;;;;;5058413;28;20058;-84
2023/05/23 06:59:52;;;;;;;12.98;4.32;;;14.20;99.90;;;;;;5063996;28;20032;-82
2023/05/23 07:02:18;;;;;;;8.88;3.97;;;14.40;99.90;;;;;;5063003;28;20029;-86
2023/05/23 07:04:43;;;;;;;9.98;4.20;;;14.60;99.90;;;;;;5064412;28;20562;-83
2023/05/23 07:07:09;;;;;;;9.25;4.03;;;14.60;99.90;;;;;;5066865;28;20931;-82
2023/05/23 07:09:35;;;;;;;9.40;3.90;;;14.80;99.90;;;;;;5075353;28;20025;-82
2023/05/23 07:12:00;;;;;;;8.63;4.10;;;14.80;99.90;;;;;;5078462;28;20490;-82
2023/05/23 07:14:26;;;;;;;6.68;3.50;;;14.90;99.90;;;;;;5059451;28;20123;-83
2023/05/23 07:16:51;;;;;;;8.50;3.63;;;15.00;99.90;;;;;;5076337;28;20089;-82
2023/05/23 07:19:17;;;;;;;9.73;3.78;;;15.20;99.90;;;;;;5075161;28;20024;-81
2023/05/23 07:21:42;;;;;;;10.50;3.75;;;15.40;99.90;;;;;;5075624;28;20169;-83
2023/05/23 07:24:08;;;;;;;8.95;3.70;;;15.50;99.90;;;;;;5076884;28;20086;-82
2023/05/23 07:26:33;;;;;;;8.45;4.38;;;15.60;99.90;;;;;;5061264;28;20459;-81
2023/05/23 07:28:59;;;;;;;7.55;3.40;;;15.50;99.90;;;;;;5066122;28;21114;-82
2023/05/23 07:31:25;;;;;;;8.07;3.78;;;15.60;99.90;;;;;;5075078;28;20028;-82
2023/05/23 07:33:50;;;;;;;9.30;3.92;;;15.70;99.90;;;;;;5066045;28;20385;-84
2023/05/23 07:36:16;;;;;;;6.57;3.88;;;15.70;99.90;;;;;;5058231;28;20036;-81
2023/05/23 07:38:42;;;;;;;9.55;4.35;;;15.60;99.90;;;;;;5075971;28;20027;-83
2023/05/23 07:41:07;;;;;;;9.45;4.20;;;15.50;99.90;;;;;;5059926;28;20111;-83
2023/05/23 07:43:33;;;;;;;9.45;3.20;;;15.50;99.90;;;;;;5065427;28;20108;-82
2023/05/23 07:45:58;;;;;;;8.48;3.80;;;15.50;99.90;;;;;;5075307;28;20031;-83
2023/05/23 07:48:25;;;;;;;6.72;3.50;;;15.70;99.90;;;;;;5064099;28;20110;-83
2023/05/23 07:50:53;;;;;;;10.45;4.38;;;15.80;99.90;;;;;;5059421;28;20025;-82
2023/05/23 07:53:20;;;;;;;9.10;4.13;;;16.10;99.90;;;;;;5074999;28;20032;-81
2023/05/23 07:55:46;;;;;;;8.88;3.38;;;16.30;99.90;;;;;;5064601;28;20028;-81
2023/05/23 07:58:11;;;;;;;9.38;4.22;;;16.30;99.90;;;;;;5065866;28;20042;-82
2023/05/23 08:00:37;;;;;;;5.82;3.47;;;16.40;99.90;;;;;;5074606;28;20020;-82
2023/05/23 08:03:03;;;;;;;7.22;3.33;;;16.30;99.90;;;;;;5074322;28;20044;-84
2023/05/23 08:05:28;;;;;;;5.40;3.08;;;16.20;99.90;;;;;;5063040;28;20501;-81
2023/05/23 08:07:54;;;;;;;6.63;3.25;;;16.20;99.90;;;;;;5064436;28;20481;-82
2023/05/23 08:10:20;;;;;;;6.22;3.25;;;16.10;99.90;;;;;;5074882;28;20024;-83
2023/05/23 08:12:45;;;;;;;7.40;3.50;;;16.00;99.90;;;;;;5064790;28;20029;-83
2023/05/23 08:15:11;;;;;;;7.95;3.40;;;15.80;99.90;;;;;;5064400;28;20035;-82
2023/05/23 08:17:37;;;;;;;6.43;3.38;;;15.70;99.90;;;;;;5059517;28;20478;-84
2023/05/23 08:20:04;;;;;;;7.75;3.25;;;15.60;99.90;;;;;;5059992;28;20132;-82
2023/05/23 08:22:29;;;;;;;5.45;2.78;;;15.60;99.90;;;;;;5058814;28;20036;-83
2023/05/23 08:24:55;;;;;;;8.18;2.55;;;15.70;99.90;;;;;;5074125;28;20631;-82
2023/05/23 08:27:20;;;;;;;9.02;2.65;;;15.80;99.90;;;;;;5067425;28;20414;-84
2023/05/23 08:29:47;;;;;;;7.55;2.50;;;15.80;99.90;;;;;;5076332;28;20024;-83
2023/05/23 08:32:13;;;;;;;6.68;2.58;;;15.90;99.90;;;;;;5074669;28;20029;-84
2023/05/23 08:34:39;;;;;;;6.28;2.40;;;15.90;99.90;;;;;;5074825;28;20389;-85
2023/05/23 08:37:05;;;;;;;8.43;2.35;;;15.90;99.90;;;;;;5076090;28;20069;-84
2023/05/23 08:39:31;;;;;;;8.95;2.53;;;15.90;99.90;;;;;;5074281;28;20012;-84
2023/05/23 08:41:56;;;;;;;8.05;2.15;;;15.80;99.90;;;;;;5077353;28;20039;-84
2023/05/23 08:44:22;;;;;;;5.72;1.67;;;15.70;99.90;;;;;;5061688;28;20028;-82
2023/05/23 08:46:51;;;;;;;5.25;2.00;;;15.80;99.90;;;;;;5074924;28;20031;-85
2023/05/23 08:49:17;;;;;;;5.32;1.75;;;15.90;99.90;;;;;;5059108;28;20028;-87
2023/05/23 08:51:43;;;;;;;6.57;1.80;;;16.00;99.90;;;;;;5058930;28;20036;-83
2023/05/23 08:54:12;;;;;;;6.47;1.60;;;16.30;99.90;;;;;;5075042;28;20077;-81
2023/05/23 08:56:38;;;;;;;5.35;1.40;;;16.70;99.90;;;;;;5064043;28;20153;-83
2023/05/23 08:59:04;;;;;;;4.25;1.38;;;17.00;99.90;;;;;;5063830;28;20020;-83
2023/05/23 09:01:32;;;;;;;6.00;1.60;;;17.30;99.90;;;;;;5058100;28;20032;-81
2023/05/23 09:04:03;;;;;;;7.25;2.00;;;17.40;99.90;;;;;;5074560;28;20024;-81
2023/05/23 09:06:29;;;;;;;6.40;1.92;;;17.30;99.90;;;;;;5062934;28;20035;-82
2023/05/23 09:08:55;;;;;;;8.30;2.30;;;17.30;99.90;;;;;;5074503;28;20060;-81
2023/05/23 09:11:23;;;;;;;8.93;3.13;;;17.30;99.90;;;;;;5057100;28;20019;-82
2023/05/23 09:13:48;;;;;;;6.20;2.10;;;17.20;99.90;;;;;;5075121;28;20028;-81
2023/05/23 09:16:16;;;;;;;8.13;1.90;;;17.10;99.90;;;;;;5073839;28;20035;-80
2023/05/23 09:18:43;;;;;;;7.38;2.38;;;17.20;99.90;;;;;;5073998;28;20074;-84
2023/05/23 09:21:11;;;;;;;7.65;2.08;;;17.40;99.90;;;;;;5065064;28;20125;-84
2023/05/23 09:23:39;;;;;;;8.98;2.17;;;17.60;99.90;;;;;;5063095;28;20051;-84
2023/05/23 09:26:09;;;;;;;8.75;2.53;;;17.70;99.90;;;;;;5073761;28;20104;-84
2023/05/23 09:28:36;;;;;;;7.03;1.60;;;17.60;99.90;;;;;;5063996;28;20109;-83
2023/05/23 09:31:07;;;;;;;8.80;2.05;;;17.50;99.90;;;;;;5075161;28;20028;-81
2023/05/23 09:33:48;;;;;;;9.48;2.00;;;17.40;99.90;;;;;;5072103;28;20025;-83
2023/05/23 09:36:14;;;;;;;6.93;1.60;;;17.50;99.90;;;;;;5063265;28;20028;-84
2023/05/23 09:38:42;;;;;;;4.80;1.50;;;17.60;99.90;;;;;;5060662;28;20389;-84
2023/05/23 09:41:11;;;;;;;9.98;2.60;;;17.90;99.90;;;;;;5057830;28;20028;-84
2023/05/23 09:43:38;;;;;;;7.70;2.35;;;18.00;99.90;;;;;;5074253;28;20032;-85
2023/05/23 09:46:08;;;;;;;7.47;2.30;;;18.40;99.90;;;;;;5057225;28;20032;-84
2023/05/23 09:48:34;;;;;;;10.80;2.50;;;18.60;99.90;;;;;;5074431;28;20035;-85
2023/05/23 09:51:08;;;;;;;10.00;2.80;;;19.00;99.90;;;;;;5072670;28;20036;-84
2023/05/23 09:53:34;;;;;;;12.02;2.60;;;19.50;99.90;;;;;;5072670;28;20114;-85
2023/05/23 09:56:02;;;;;;;7.20;2.28;;;19.80;99.90;;;;;;5056380;28;20154;-84
2023/05/23 09:58:29;;;;;;;8.38;2.08;;;20.20;99.90;;;;;;5065509;28;20035;-84
2023/05/23 10:00:56;;;;;;;9.38;2.00;;;20.60;99.90;;;;;;5074048;28;20012;-83
2023/05/23 10:03:30;;;;;;;7.35;2.47;;;21.10;99.90;;;;;;5058790;28;20034;-84
2023/05/23 10:06:00;;;;;;;6.22;1.88;;;21.90;99.90;;;;;;5073919;28;20029;-86
2023/05/23 10:08:43;;;;;;;9.07;1.83;;;22.60;99.90;;;;;;5058144;28;20535;-85
2023/05/23 10:11:15;;;;;;;9.35;2.72;;;23.30;99.90;;;;;;5072428;28;20591;-83
2023/05/23 10:13:48;;;;;;;7.95;2.30;;;23.60;99.90;;;;;;5062538;28;20033;-83
2023/05/23 10:16:20;;;;;;;7.10;2.33;;;23.30;99.70;;;;;;5074289;28;20044;-83
2023/05/23 10:18:51;;;;;;;6.45;2.03;;;23.00;99.90;;;;;;5074107;28;20486;-83
2023/05/23 10:21:30;;;;;;;10.48;2.60;;;23.10;99.70;;;;;;5061033;28;20031;-83
2023/05/23 10:23:59;;;;;;;8.07;2.45;;;23.10;98.60;;;;;;5072667;28;20091;-84
2023/05/23 10:26:26;;;;;;;7.90;2.42;;;23.10;99.00;;;;;;5057250;28;20020;-84
2023/05/23 10:28:52;;;;;;;5.50;1.73;;;23.00;98.70;;;;;;5073571;28;20485;-84
2023/05/23 10:31:20;;;;;;;6.80;2.17;;;22.70;98.50;;;;;;5065675;28;20809;-84
2023/05/23 10:33:52;;;;;;;4.50;1.70;;;23.10;98.70;;;;;;5072949;28;20013;-84
2023/05/23 10:36:59;;;;;;;5.07;2.03;;;23.70;98.00;;;;;;5072679;28;20481;-85
2023/05/23 10:39:54;;;;;;;7.90;2.63;;;24.30;96.90;;;;;;5070970;28;20051;-83
2023/05/23 10:42:33;;;;;;;9.23;2.55;;;24.30;95.30;;;;;;5049228;28;20047;-83
2023/05/23 10:45:19;;;;;;;6.13;1.85;;;23.60;95.80;;;;;;5062315;28;20028;-83
2023/05/23 10:47:47;;;;;;;12.55;3.17;;;23.30;95.60;;;;;;5076270;28;20036;-83
2023/05/23 10:50:15;;;;;;;6.20;2.17;;;23.00;95.10;;;;;;5066471;28;20027;-83
2023/05/23 10:52:42;;;;;;;8.23;2.35;;;23.40;95.80;;;;;;5076673;28;20032;-83
2023/05/23 10:55:16;;;;;;;7.72;2.30;;;23.60;94.90;;;;;;5066058;28;20024;-83
2023/05/23 10:57:43;;;;;;;9.55;2.30;;;23.50;94.80;;;;;;5076622;28;20023;-83
2023/05/23 11:00:15;;;;;;;7.00;2.50;;;23.10;95.20;;;;;;5077287;28;20131;-81
2023/05/23 11:02:58;;;;;;;6.05;2.30;;;23.20;95.30;;;;;;5059418;28;20036;-81
2023/05/23 11:05:27;;;;;;;7.30;2.20;;;23.10;94.70;;;;;;5061271;28;20119;-82
2023/05/23 11:08:13;;;;;;;5.95;1.73;;;23.10;95.50;;;;;;5075810;28;20167;-83
2023/05/23 11:10:58;;;;;;;5.05;1.65;;;23.30;95.40;;;;;;5060814;28;20036;-83
2023/05/23 11:13:24;;;;;;;6.97;2.20;;;22.90;95.50;;;;;;5067642;28;20082;-84
2023/05/23 11:15:50;;;;;;;7.18;2.20;;;22.60;94.80;;;;;;5075286;28;20020;-82
2023/05/23 11:18:21;;;;;;;8.30;2.70;;;22.80;94.90;;;;;;5060284;28;20090;-84
2023/05/23 11:20:50;;;;;;;7.78;2.20;;;23.00;94.30;;;;;;5073578;28;20120;-83
2023/05/23 11:23:16;;;;;;;6.30;2.10;;;23.40;94.20;;;;;;5074327;28;20476;-84
2023/05/23 11:25:43;;;;;;;7.57;2.22;;;23.90;94.20;;;;;;5058649;28;20013;-83
2023/05/23 11:28:10;;;;;;;6.13;1.42;;;24.20;94.00;;;;;;5061410;28;20031;-82
2023/05/23 11:30:36;;;;;;;7.80;2.38;;;23.70;93.80;;;;;;5075546;28;20028;-83
2023/05/23 11:33:08;;;;;;;6.97;1.92;;;22.90;93.60;;;;;;5065749;28;20086;-84
2023/05/23 11:35:34;;;;;;;9.63;2.40;;;22.40;93.70;;;;;;5064479;28;20082;-83
2023/05/23 11:38:02;;;;;;;9.05;2.05;;;22.50;94.20;;;;;;5058028;28;20036;-84
2023/05/23 11:40:32;;;;;;;5.70;2.17;;;23.10;94.00;;;;;;5064788;28;20024;-85
2023/05/23 11:42:59;;;;;;;4.85;1.70;;;23.50;93.80;;;;;;5069370;28;20048;-83
2023/05/23 11:45:25;;;;;;;8.93;2.30;;;23.60;93.70;;;;;;5065479;28;20017;-84
2023/05/23 11:47:51;;;;;;;4.43;1.70;;;23.20;93.20;;;;;;5057678;28;22041;-84
2023/05/23 11:50:19;;;;;;;4.32;1.83;;;22.90;93.10;;;;;;5073342;28;20490;-84
2023/05/23 11:52:50;;;;;;;4.45;1.45;;;23.40;93.30;;;;;;5063924;28;20046;-83
2023/05/23 11:55:22;;;;;;;6.72;1.88;;;23.90;92.80;;;;;;5075305;28;20024;-85
2023/05/23 11:57:48;;;;;;;7.07;1.80;;;23.40;92.00;;;;;;5061516;28;20028;-83
2023/05/23 12:00:15;;;;;;;8.50;2.30;;;22.70;93.00;;;;;;5065567;28;20282;-82
2023/05/23 12:02:41;;;;;;;7.70;2.50;;;22.10;93.10;;;;;;5076414;28;20032;-82
2023/05/23 12:05:14;;;;;;;9.25;2.28;;;22.00;93.80;;;;;;5065507;28;20485;-82
2023/05/23 12:07:47;;;;;;;7.68;2.70;;;22.70;94.00;;;;;;5075565;28;20021;-85
2023/05/23 12:10:16;;;;;;;;;;;23.20;93.60;;;;;;5067011;28;20058;-83
2023/05/23 12:12:43;;;;;;;9.13;1.95;;;23.20;93.30;;;;;;5066078;28;19931;-84
2023/05/23 12:15:10;;;;;;;6.80;2.30;;;23.00;93.10;;;;;;5058525;28;20028;-83
2023/05/23 12:17:44;;;;;;;8.45;2.10;;;22.60;92.70;;;;;;5071603;28;20499;-83
2023/05/23 12:20:11;;;;;;;8.40;2.30;;;22.20;92.80;;;;;;5075983;28;20558;-84
2023/05/23 12:22:36;;;;;;;4.95;1.52;;;21.70;93.20;;;;;;5073930;28;20071;-83
2023/05/23 12:25:03;;;;;;;4.80;1.65;;;21.40;93.80;;;;;;5074752;28;20202;-83
2023/05/23 12:27:33;;;;;;;5.75;1.45;;;21.70;93.90;;;;;;5075650;28;20080;-83
2023/05/23 12:30:13;;;;;;;5.97;1.58;;;22.50;92.80;;;;;;5060022;28;20020;-83
2023/05/23 12:32:40;;;;;;;4.55;1.40;;;22.60;92.30;;;;;;5073000;28;20031;-83
2023/05/23 12:35:07;;;;;;;4.78;1.45;;;22.70;92.20;;;;;;5074384;28;20031;-84
2023/05/23 12:37:33;;;;;;;5.45;1.58;;;23.30;91.70;;;;;;5058936;28;20504;-84
2023/05/23 12:40:09;;;;;;;5.28;1.67;;;23.40;91.80;;;;;;5074004;28;20028;-84
2023/05/23 12:42:55;;;;;;;6.43;1.80;;;23.80;91.90;;;;;;5074418;28;20032;-83
2023/05/23 12:45:35;;;;;;;4.75;1.65;;;23.90;91.20;;;;;;5072517;28;20028;-84